Sunday, April 20, 2014, 9:18 AM EDT

KEZF, Fredericksburg, Shannon Airport

Location: Fredericksburg, VA, United States Lat: 38.267
Local Time: 9:18 AM EDT (13:18 GMT) Lon: -77.45
Time Zone: US/Eastern Elev: 85 ft

Show me the last for .
Show Decoded

2014-04-20 08:35 METAR KEZF 201235Z AUTO 02007KT 10SM CLR 11/04 A3036 RMK AO2 =
2014-04-20 08:15 METAR KEZF 201215Z AUTO 36004KT 10SM CLR 09/04 A3036 RMK AO2 =
2014-04-20 07:55 METAR KEZF 201155Z AUTO 00000KT 10SM CLR 08/04 A3035 RMK AO2 =
2014-04-20 07:35 METAR KEZF 201135Z AUTO 00000KT 10SM CLR 07/04 A3035 RMK AO2 =
2014-04-20 07:15 METAR KEZF 201115Z AUTO 00000KT 10SM CLR 07/04 A3034 RMK AO2 =
2014-04-20 06:55 METAR KEZF 201055Z AUTO 00000KT 10SM CLR 07/04 A3033 RMK AO2 =
2014-04-20 06:35 METAR KEZF 201035Z AUTO 34003KT 10SM CLR 06/04 A3032 RMK AO2 =
2014-04-20 06:15 METAR KEZF 201015Z AUTO 35003KT 10SM CLR 07/04 A3032 RMK AO2 =
2014-04-20 05:55 METAR KEZF 200955Z AUTO 31003KT 10SM CLR 07/04 A3031 RMK AO2 =
2014-04-20 05:35 METAR KEZF 200935Z AUTO 00000KT 10SM CLR 07/04 A3031 RMK AO2 =
2014-04-20 05:15 METAR KEZF 200915Z AUTO 31003KT 10SM CLR 06/04 A3031 RMK AO2 =
2014-04-20 04:55 METAR KEZF 200855Z AUTO 34003KT 10SM CLR 07/05 A3031 RMK AO2 =
2014-04-20 04:35 METAR KEZF 200835Z AUTO 00000KT 10SM CLR 07/05 A3031 RMK AO2 =
2014-04-20 04:15 METAR KEZF 200815Z AUTO 00000KT 10SM CLR 07/05 A3031 RMK AO2 =
2014-04-20 03:56 METAR KEZF 200756Z AUTO 00000KT 10SM CLR 07/05 A3031 RMK AO2 =
2014-04-20 03:35 METAR KEZF 200735Z AUTO 00000KT 10SM CLR 08/06 A3030 RMK AO2 =
2014-04-20 03:15 METAR KEZF 200715Z AUTO 00000KT 10SM CLR 08/06 A3030 RMK AO2 =
2014-04-20 02:55 METAR KEZF 200655Z AUTO 34003KT 10SM CLR 08/06 A3030 RMK AO2 =
2014-04-20 02:35 METAR KEZF 200635Z AUTO 00000KT 7SM CLR 08/06 A3029 RMK AO2 =
2014-04-20 02:15 METAR KEZF 200615Z AUTO 33003KT 10SM CLR 09/06 A3029 RMK AO2 =
2014-04-20 01:55 METAR KEZF 200555Z AUTO 00000KT 10SM CLR 09/06 A3030 RMK AO2 =
2014-04-20 01:35 METAR KEZF 200535Z AUTO 00000KT 10SM CLR 10/06 A3030 RMK AO2 =
2014-04-20 01:15 METAR KEZF 200515Z AUTO 00000KT 10SM CLR 11/06 A3030 RMK AO2 =
2014-04-20 00:55 METAR KEZF 200455Z AUTO 00000KT 10SM CLR 11/06 A3031 RMK AO2 =
2014-04-20 00:35 METAR KEZF 200435Z AUTO 12004KT 10SM CLR 11/06 A3030 RMK AO2 =
2014-04-20 00:15 METAR KEZF 200415Z AUTO 10004KT 10SM CLR 12/05 A3030 RMK AO2 =
2014-04-19 23:55 METAR KEZF 200355Z AUTO 06004KT 10SM CLR 11/06 A3029 RMK AO2 =
2014-04-19 23:35 METAR KEZF 200335Z AUTO 07003KT 10SM CLR 12/06 A3029 RMK AO2 =
2014-04-19 23:15 METAR KEZF 200315Z AUTO 36003KT 10SM CLR 11/07 A3029 RMK AO2 =
2014-04-19 22:55 METAR KEZF 200255Z AUTO 00000KT 10SM CLR 11/07 A3028 RMK AO2 =
2014-04-19 22:35 METAR KEZF 200235Z AUTO 00000KT 10SM CLR 12/07 A3027 RMK AO2 =
2014-04-19 22:15 METAR KEZF 200215Z AUTO 00000KT 10SM CLR 12/07 A3027 RMK AO2 =
2014-04-19 21:35 METAR KEZF 200135Z AUTO 00000KT 10SM CLR 13/06 A3026 RMK AO2 =
2014-04-19 21:15 METAR KEZF 200115Z AUTO 00000KT 10SM CLR 13/07 A3026 RMK AO2 =
2014-04-19 20:55 METAR KEZF 200055Z AUTO 00000KT 10SM CLR 14/06 A3025 RMK AO2 =
2014-04-19 20:35 METAR KEZF 200035Z AUTO 00000KT 10SM CLR 14/06 A3025 RMK AO2 =
2014-04-19 20:15 METAR KEZF 200015Z AUTO 00000KT 10SM CLR 16/06 A3024 RMK AO2 =
2014-04-19 19:55 METAR KEZF 192355Z AUTO 00000KT 10SM CLR 16/05 A3024 RMK AO2 =
2014-04-19 19:35 METAR KEZF 192335Z AUTO 00000KT 10SM CLR 17/05 A3023 RMK AO2 =
2014-04-19 19:15 METAR KEZF 192315Z AUTO 11003KT 10SM CLR 17/05 A3022 RMK AO2 =
2014-04-19 18:55 METAR KEZF 192255Z AUTO 12006KT 10SM CLR 17/05 A3022 RMK AO2 =
2014-04-19 18:35 METAR KEZF 192235Z AUTO 11005KT 10SM CLR 18/04 A3022 RMK AO2 =
2014-04-19 18:15 METAR KEZF 192215Z AUTO 12007KT 10SM CLR 18/04 A3022 RMK AO2 =
2014-04-19 17:55 METAR KEZF 192155Z AUTO 11006KT 10SM CLR 19/04 A3022 RMK AO2 =
2014-04-19 17:35 METAR KEZF 192135Z AUTO 11006KT 10SM CLR 19/04 A3022 RMK AO2 =
2014-04-19 17:15 METAR KEZF 192115Z AUTO 13007KT 10SM CLR 19/04 A3022 RMK AO2 =
2014-04-19 16:55 METAR KEZF 192055Z AUTO 09006KT 10SM CLR 20/03 A3021 RMK AO2 =
2014-04-19 16:35 METAR KEZF 192035Z AUTO 07005KT 10SM CLR 20/03 A3021 RMK AO2 =
2014-04-19 16:15 METAR KEZF 192015Z AUTO 06006KT 10SM CLR 20/04 A3020 RMK AO2 =
2014-04-19 15:55 METAR KEZF 191955Z AUTO 09007KT 10SM CLR 20/04 A3021 RMK AO2 =
2014-04-19 15:35 METAR KEZF 191935Z AUTO 10006KT 10SM CLR 19/04 A3022 RMK AO2 =
2014-04-19 15:15 METAR KEZF 191915Z AUTO 09007KT 10SM CLR 19/04 A3023 RMK AO2 =
2014-04-19 14:55 METAR KEZF 191855Z AUTO 09008KT 10SM CLR 19/05 A3024 RMK AO2 =
2014-04-19 14:35 METAR KEZF 191835Z AUTO 08009KT 10SM CLR 19/05 A3024 RMK AO2 =
2014-04-19 14:15 METAR KEZF 191815Z AUTO 04005KT 10SM CLR 19/05 A3025 RMK AO2 =
2014-04-19 13:55 METAR KEZF 191755Z AUTO 07008KT 10SM CLR 19/06 A3025 RMK AO2 =
2014-04-19 13:35 METAR KEZF 191735Z AUTO 06005KT 10SM CLR 18/06 A3025 RMK AO2 =
2014-04-19 12:57 METAR KEZF 191657Z AUTO 06007KT 10SM CLR 17/05 A3026 RMK AO2 =
2014-04-19 12:35 METAR KEZF 191635Z AUTO 07007KT 10SM CLR 17/06 A3027 RMK AO2 =
2014-04-19 12:15 METAR KEZF 191615Z AUTO 05006KT 10SM CLR 17/06 A3027 RMK AO2 =
2014-04-19 11:55 METAR KEZF 191555Z AUTO 06008KT 10SM CLR 16/06 A3027 RMK AO2 =
2014-04-19 11:35 METAR KEZF 191535Z AUTO 04009KT 10SM CLR 15/05 A3028 RMK AO2 =
2014-04-19 11:15 METAR KEZF 191515Z AUTO 02007KT 10SM CLR 14/06 A3028 RMK AO2 =
2014-04-19 10:55 METAR KEZF 191455Z AUTO 01006KT 10SM CLR 13/06 A3030 RMK AO2 =
2014-04-19 10:35 METAR KEZF 191435Z AUTO 05005KT 10SM CLR 13/06 A3030 RMK AO2 =
2014-04-19 10:15 METAR KEZF 191415Z AUTO 01005KT 10SM CLR 12/06 A3030 RMK AO2 =
2014-04-19 09:55 METAR KEZF 191355Z AUTO 02003KT 10SM CLR 12/06 A3030 RMK AO2 =
2014-04-19 09:35 METAR KEZF 191335Z AUTO 00000KT 10SM CLR 11/06 A3030 RMK AO2 =

Support USWX by starting your Amazon purchase here.